createdAt,value
2023-05-18T00:00:14.358Z,101545.47
2023-05-18T00:02:43.388Z,101542.97
2023-05-18T00:05:11.747Z,101542.81
2023-05-18T00:07:41.094Z,101551.72
2023-05-18T00:10:12.137Z,101545.56
2023-05-18T00:12:40.209Z,101550.34
2023-05-18T00:15:09.265Z,101552.44
2023-05-18T00:17:37.772Z,101543.72
2023-05-18T00:20:10.402Z,101548.25
2023-05-18T00:22:39.299Z,101544.75
2023-05-18T00:25:07.748Z,101546.53
2023-05-18T00:27:37.358Z,101551.84
2023-05-18T00:30:06.426Z,101553.84
2023-05-18T00:32:34.474Z,101552.91
2023-05-18T00:35:03.202Z,101559.50
2023-05-18T00:37:32.409Z,101557.81
2023-05-18T00:40:00.485Z,101553.44
2023-05-18T00:42:28.626Z,101552.91
2023-05-18T00:44:58.298Z,101556.66
2023-05-18T00:47:27.627Z,101556.50
2023-05-18T00:49:56.713Z,101556.91
2023-05-18T00:52:25.513Z,101560.50
2023-05-18T00:54:54.301Z,101552.34
2023-05-18T00:57:22.455Z,101554.00
2023-05-18T00:59:51.216Z,101566.47
2023-05-18T01:02:21.228Z,101572.97
2023-05-18T01:04:49.486Z,101573.03
2023-05-18T01:07:17.893Z,101568.00
2023-05-18T01:09:46.074Z,101565.22
2023-05-18T01:12:24.522Z,101576.56
2023-05-18T01:15:04.732Z,101576.56
2023-05-18T01:17:45.278Z,101573.25
2023-05-18T01:20:23.578Z,101583.81
2023-05-18T01:23:24.910Z,101578.41
2023-05-18T01:26:07.595Z,101582.87
2023-05-18T01:28:40.487Z,101589.03
2023-05-18T01:31:10.895Z,101582.13
2023-05-18T01:33:42.572Z,101588.34
2023-05-18T01:36:13.897Z,101591.16
2023-05-18T01:38:44.363Z,101601.91
2023-05-18T01:41:21.696Z,101601.16
2023-05-18T01:43:56.779Z,101602.38
2023-05-18T01:46:35.970Z,101607.97
2023-05-18T01:49:13.567Z,101607.28
2023-05-18T01:51:47.320Z,101606.41
2023-05-18T01:54:25.222Z,101604.72
2023-05-18T01:57:04.351Z,101604.16
2023-05-18T01:59:36.398Z,101606.81
2023-05-18T02:02:07.181Z,101604.38
2023-05-18T02:04:39.404Z,101606.16
2023-05-18T02:07:10.462Z,101611.56
2023-05-18T02:09:39.539Z,101608.12
2023-05-18T02:12:09.502Z,101617.94
2023-05-18T02:14:37.641Z,101614.47
2023-05-18T02:17:07.419Z,101612.06
2023-05-18T02:19:38.772Z,101606.91
2023-05-18T02:22:08.215Z,101609.53
2023-05-18T02:24:38.731Z,101611.56
2023-05-18T02:27:07.580Z,101611.62
2023-05-18T02:29:38.003Z,101615.34
2023-05-18T02:32:06.716Z,101617.41
2023-05-18T02:34:37.423Z,101613.19
2023-05-18T02:37:06.099Z,101612.47
2023-05-18T02:39:34.184Z,101614.31
2023-05-18T02:42:02.680Z,101614.41
2023-05-18T02:44:31.462Z,101614.53
2023-05-18T02:47:01.030Z,101616.31
2023-05-18T02:49:29.782Z,101618.09
2023-05-18T02:51:58.191Z,101613.88
2023-05-18T02:54:26.351Z,101609.72
2023-05-18T02:57:00.496Z,101618.78
2023-05-18T02:59:33.206Z,101612.50
2023-05-18T03:02:05.792Z,101616.09
2023-05-18T03:04:40.724Z,101619.59
2023-05-18T03:07:11.482Z,101613.41
2023-05-18T03:09:39.903Z,101614.13
2023-05-18T03:12:09.995Z,101621.16
2023-05-18T03:14:38.189Z,101623.75
2023-05-18T03:17:08.061Z,101624.56
2023-05-18T03:19:37.091Z,101619.16
2023-05-18T03:22:06.020Z,101619.25
2023-05-18T03:24:40.721Z,101618.22
2023-05-18T03:27:09.230Z,101616.16
2023-05-18T03:29:37.929Z,101621.34
2023-05-18T03:32:06.588Z,101622.12
2023-05-18T03:34:37.150Z,101614.19
2023-05-18T03:37:08.146Z,101622.78
2023-05-18T03:39:36.325Z,101622.66
2023-05-18T03:42:04.814Z,101618.16
2023-05-18T03:44:33.493Z,101611.06
2023-05-18T03:47:01.732Z,101616.81
2023-05-18T03:49:30.907Z,101620.09
2023-05-18T03:52:00.753Z,101631.31
2023-05-18T03:54:28.834Z,101624.09
2023-05-18T03:56:56.964Z,101628.16
2023-05-18T03:59:25.574Z,101625.38
2023-05-18T04:01:54.314Z,101633.47
2023-05-18T04:04:23.841Z,101634.19
2023-05-18T04:06:52.487Z,101636.56
2023-05-18T04:09:23.870Z,101636.94
2023-05-18T04:11:52.325Z,101636.69
2023-05-18T04:14:21.334Z,101634.78
2023-05-18T04:16:49.502Z,101636.06
2023-05-18T04:19:19.102Z,101640.25
2023-05-18T04:21:47.524Z,101644.44
2023-05-18T04:24:16.541Z,101643.16
2023-05-18T04:26:46.784Z,101646.66
2023-05-18T04:29:15.501Z,101641.13
2023-05-18T04:31:44.970Z,101645.66
2023-05-18T04:34:14.292Z,101653.69
2023-05-18T04:36:44.358Z,101653.78
2023-05-18T04:39:12.689Z,101655.19
2023-05-18T04:41:42.308Z,101662.28
2023-05-18T04:44:14.102Z,101667.34
2023-05-18T04:46:42.779Z,101662.03
2023-05-18T04:49:11.766Z,101662.44
2023-05-18T04:51:42.115Z,101667.53
2023-05-18T04:54:13.238Z,101672.75
2023-05-18T04:56:41.379Z,101674.25
2023-05-18T04:59:11.048Z,101673.13
2023-05-18T05:01:39.460Z,101671.94
2023-05-18T05:04:07.791Z,101665.31
2023-05-18T05:06:36.067Z,101667.97
2023-05-18T05:09:04.894Z,101659.97
2023-05-18T05:11:33.068Z,101661.88
2023-05-18T05:14:02.891Z,101675.44
2023-05-18T05:16:33.476Z,101671.41
2023-05-18T05:19:02.119Z,101678.47
2023-05-18T05:21:33.222Z,101684.25
2023-05-18T05:24:05.016Z,101682.22
2023-05-18T05:26:33.684Z,101683.25
2023-05-18T05:29:02.013Z,101681.81
2023-05-18T05:31:30.661Z,101673.25
2023-05-18T05:34:00.604Z,101672.72
2023-05-18T05:36:28.682Z,101680.28
2023-05-18T05:38:57.165Z,101675.16
2023-05-18T05:41:25.563Z,101678.31
2023-05-18T05:43:54.053Z,101679.09
2023-05-18T05:46:22.128Z,101681.66
2023-05-18T05:48:52.163Z,101676.31
2023-05-18T05:51:22.143Z,101683.12
2023-05-18T05:53:51.145Z,101679.00
2023-05-18T05:56:19.353Z,101690.13
2023-05-18T05:58:47.780Z,101678.72
2023-05-18T06:01:16.319Z,101681.81
2023-05-18T06:03:45.417Z,101677.50
2023-05-18T06:06:14.428Z,101679.91
2023-05-18T06:08:44.801Z,101679.09
2023-05-18T06:11:13.738Z,101684.78
2023-05-18T06:13:41.869Z,101680.59
2023-05-18T06:16:11.180Z,101678.00
2023-05-18T06:18:41.573Z,101678.00
2023-05-18T06:21:10.426Z,101679.09
2023-05-18T06:23:41.709Z,101674.84
2023-05-18T06:26:11.968Z,101677.09
2023-05-18T06:28:41.742Z,101683.03
2023-05-18T06:31:10.409Z,101685.31
2023-05-18T06:33:38.775Z,101681.97
2023-05-18T06:36:07.157Z,101678.34
2023-05-18T06:38:35.648Z,101680.50
2023-05-18T06:41:03.986Z,101677.94
2023-05-18T06:43:33.658Z,101675.38
2023-05-18T06:46:04.125Z,101674.16
2023-05-18T06:48:34.496Z,101665.72
2023-05-18T06:51:06.882Z,101672.38
2023-05-18T06:53:36.007Z,101668.78
2023-05-18T06:56:04.876Z,101671.47
2023-05-18T06:58:36.164Z,101669.81
2023-05-18T07:01:04.881Z,101681.88
2023-05-18T07:03:33.571Z,101683.09
2023-05-18T07:06:02.085Z,101684.19
2023-05-18T07:08:30.590Z,101687.28
2023-05-18T07:10:59.462Z,101682.47
2023-05-18T07:13:27.751Z,101683.06
2023-05-18T07:15:57.844Z,101683.91
2023-05-18T07:18:26.469Z,101686.22
2023-05-18T07:20:58.194Z,101684.69
2023-05-18T07:23:26.598Z,101688.91
2023-05-18T07:25:54.789Z,101685.00
2023-05-18T07:28:22.912Z,101685.03
2023-05-18T07:30:51.350Z,101684.97
2023-05-18T07:33:20.927Z,101684.34
2023-05-18T07:35:49.299Z,101688.03
2023-05-18T07:38:17.747Z,101693.31
2023-05-18T07:40:46.129Z,101688.56
2023-05-18T07:43:14.278Z,101692.62
2023-05-18T07:45:42.868Z,101684.91
2023-05-18T07:48:11.082Z,101685.28
2023-05-18T07:50:40.715Z,101677.63
2023-05-18T07:53:11.671Z,101685.69
2023-05-18T07:55:42.111Z,101684.94
2023-05-18T07:58:10.618Z,101681.22
2023-05-18T08:00:38.813Z,101678.34
2023-05-18T08:03:08.683Z,101675.09
2023-05-18T08:05:37.462Z,101676.66
2023-05-18T08:08:08.213Z,101674.56
2023-05-18T08:10:36.846Z,101673.25
2023-05-18T08:13:05.067Z,101685.72
2023-05-18T08:15:33.318Z,101682.06
2023-05-18T08:18:04.845Z,101681.06
2023-05-18T08:20:33.290Z,101678.03
2023-05-18T08:23:01.742Z,101682.06
2023-05-18T08:25:31.435Z,101679.69
2023-05-18T08:27:59.866Z,101678.56
2023-05-18T08:30:28.929Z,101668.47
2023-05-18T08:32:57.545Z,101671.84
2023-05-18T08:35:26.011Z,101676.47
2023-05-18T08:37:55.480Z,101676.56
2023-05-18T08:40:28.299Z,101673.06
2023-05-18T08:43:04.991Z,101678.75
2023-05-18T08:45:37.560Z,101666.31
2023-05-18T08:48:07.153Z,101661.13
2023-05-18T08:50:36.949Z,101667.06
2023-05-18T08:53:07.381Z,101670.00
2023-05-18T08:55:37.598Z,101667.19
2023-05-18T08:58:10.767Z,101668.88
2023-05-18T09:00:39.190Z,101670.69
2023-05-18T09:03:08.235Z,101678.38
2023-05-18T09:05:37.525Z,101676.12
2023-05-18T09:08:07.719Z,101675.41
2023-05-18T09:10:36.378Z,101666.28
2023-05-18T09:13:06.267Z,101672.88
2023-05-18T09:15:38.698Z,101670.81
2023-05-18T09:18:13.326Z,101667.09
2023-05-18T09:20:41.911Z,101661.84
2023-05-18T09:23:12.072Z,101666.19
2023-05-18T09:25:47.244Z,101665.44
2023-05-18T09:28:15.786Z,101662.28
2023-05-18T09:30:45.235Z,101662.16
2023-05-18T09:33:18.436Z,101657.63
2023-05-18T09:35:47.343Z,101662.59
2023-05-18T09:41:39.900Z,101659.31
2023-05-18T09:44:09.598Z,101651.84
2023-05-18T09:46:40.609Z,101652.69
2023-05-18T09:49:10.542Z,101657.75
2023-05-18T09:51:40.331Z,101649.69
2023-05-18T09:54:10.535Z,101640.81
2023-05-18T09:56:39.875Z,101652.66
2023-05-18T09:59:12.348Z,101647.13
2023-05-18T10:01:57.183Z,101651.19
2023-05-18T10:04:38.208Z,101658.38
2023-05-18T10:07:13.673Z,101647.00
2023-05-18T10:09:42.678Z,101654.84
2023-05-18T10:12:16.715Z,101654.28
2023-05-18T10:17:35.582Z,101652.41
2023-05-18T10:20:05.995Z,101654.41
2023-05-18T10:22:36.561Z,101641.44
2023-05-18T10:25:07.029Z,101641.13
2023-05-18T10:27:37.328Z,101639.56
2023-05-18T10:30:09.706Z,101621.69
2023-05-18T10:32:40.055Z,101625.84
2023-05-18T10:35:09.633Z,101621.78
2023-05-18T10:37:41.535Z,101620.66
2023-05-18T10:40:11.811Z,101613.03
2023-05-18T10:42:42.348Z,101618.62
2023-05-18T10:45:13.116Z,101622.22
2023-05-18T10:47:44.636Z,101609.94
2023-05-18T10:50:16.797Z,101615.59
2023-05-18T10:52:45.850Z,101610.53
2023-05-18T10:55:16.582Z,101606.72
2023-05-18T10:57:51.061Z,101609.25
2023-05-18T11:00:20.399Z,101611.38
2023-05-18T11:02:51.995Z,101601.00
2023-05-18T11:05:25.913Z,101601.28
2023-05-18T11:08:03.304Z,101595.13
2023-05-18T11:10:36.858Z,101593.47
2023-05-18T11:13:07.186Z,101593.69
2023-05-18T11:16:05.246Z,101582.75
2023-05-18T11:18:42.124Z,101576.72
2023-05-18T11:21:20.643Z,101580.47
2023-05-18T11:24:19.269Z,101581.72
2023-05-18T11:26:48.763Z,101581.94
2023-05-18T11:29:25.823Z,101578.09
2023-05-18T11:31:55.956Z,101574.12
2023-05-18T11:34:45.983Z,101571.47
2023-05-18T11:37:16.418Z,101572.19
2023-05-18T11:40:00.096Z,101573.41
2023-05-18T11:42:34.168Z,101579.53
2023-05-18T11:45:12.195Z,101572.69
2023-05-18T11:47:42.283Z,101573.38
2023-05-18T11:50:16.296Z,101569.78
2023-05-18T11:52:50.938Z,101570.13
2023-05-18T11:55:21.974Z,101562.84
2023-05-18T11:58:06.314Z,101574.44
2023-05-18T12:00:57.771Z,101566.50
2023-05-18T12:03:27.509Z,101568.22
2023-05-18T12:06:01.374Z,101560.38
2023-05-18T12:08:30.295Z,101564.91
2023-05-18T12:10:59.273Z,101565.41
2023-05-18T12:13:28.650Z,101571.44
2023-05-18T12:15:58.997Z,101565.94
2023-05-18T12:18:29.556Z,101573.03
2023-05-18T12:20:59.575Z,101573.97
2023-05-18T12:23:38.010Z,101573.63
2023-05-18T12:26:47.083Z,101568.06
2023-05-18T12:29:31.543Z,101564.41
2023-05-18T12:31:59.883Z,101555.06
2023-05-18T12:34:31.139Z,101565.69
2023-05-18T12:37:27.993Z,101554.94
2023-05-18T12:39:58.787Z,101559.06
2023-05-18T12:42:44.906Z,101558.72
2023-05-18T12:45:18.327Z,101552.97
2023-05-18T12:48:15.008Z,101555.00
2023-05-18T12:50:49.214Z,101551.59
2023-05-18T12:53:43.597Z,101553.38
2023-05-18T12:56:12.786Z,101553.53
2023-05-18T12:58:41.696Z,101553.34
2023-05-18T13:01:12.232Z,101550.19
2023-05-18T13:03:41.906Z,101538.00
2023-05-18T13:06:10.711Z,101542.22
2023-05-18T13:08:39.164Z,101535.09
2023-05-18T13:11:14.620Z,101536.47
2023-05-18T13:14:04.657Z,101522.28
2023-05-18T13:16:35.213Z,101524.31
2023-05-18T13:19:04.866Z,101527.22
2023-05-18T13:21:34.243Z,101529.22
2023-05-18T13:24:02.630Z,101527.63
2023-05-18T13:26:33.036Z,101523.50
2023-05-18T13:29:01.754Z,101523.06
2023-05-18T13:31:30.609Z,101519.31
2023-05-18T13:33:58.849Z,101528.50
2023-05-18T13:36:29.696Z,101526.84
2023-05-18T13:38:58.413Z,101530.12
2023-05-18T13:41:29.736Z,101532.16
2023-05-18T13:43:59.190Z,101516.81
2023-05-18T13:46:29.302Z,101530.22
2023-05-18T13:48:57.905Z,101521.47
2023-05-18T13:51:41.353Z,101533.91
2023-05-18T13:54:29.760Z,101520.28
2023-05-18T13:56:58.470Z,101516.09
2023-05-18T13:59:27.974Z,101514.84
2023-05-18T14:01:56.181Z,101514.84
2023-05-18T14:04:24.644Z,101506.22
2023-05-18T14:06:56.020Z,101504.37
2023-05-18T14:09:24.701Z,101510.81
2023-05-18T14:11:53.887Z,101510.59
2023-05-18T14:14:27.629Z,101512.06
2023-05-18T14:16:56.245Z,101514.53
2023-05-18T14:22:30.493Z,101500.12
2023-05-18T14:24:59.061Z,101506.06
2023-05-18T14:27:27.077Z,101506.12
2023-05-18T14:29:57.003Z,101502.44
2023-05-18T14:32:25.116Z,101500.63
2023-05-18T14:34:55.801Z,101500.88
2023-05-18T14:37:24.499Z,101498.06
2023-05-18T14:39:52.582Z,101503.06
2023-05-18T14:42:21.089Z,101498.09
2023-05-18T14:44:49.454Z,101503.59
2023-05-18T14:47:19.047Z,101499.97
2023-05-18T14:50:10.301Z,101499.94
2023-05-18T14:52:39.576Z,101502.66
2023-05-18T14:55:08.187Z,101496.88
2023-05-18T15:00:41.198Z,101495.22
2023-05-18T15:10:46.901Z,101496.19
2023-05-18T15:13:18.737Z,101485.16
2023-05-18T15:15:46.938Z,101486.84
2023-05-18T15:18:33.745Z,101485.16
2023-05-18T15:21:01.729Z,101480.22
2023-05-18T15:23:33.154Z,101473.25
2023-05-18T15:26:56.064Z,101478.00
2023-05-18T15:29:24.411Z,101476.00
2023-05-18T15:31:54.305Z,101492.13
2023-05-18T15:40:37.530Z,101478.41
2023-05-18T15:43:06.834Z,101478.91
2023-05-18T15:45:35.145Z,101482.31
2023-05-18T15:48:47.074Z,101485.25
2023-05-18T15:51:31.346Z,101491.00
2023-05-18T15:53:59.688Z,101484.94
2023-05-18T15:56:28.427Z,101480.59
2023-05-18T15:58:57.901Z,101477.72
2023-05-18T16:01:26.351Z,101467.66
2023-05-18T16:03:54.620Z,101464.66
2023-05-18T16:06:22.666Z,101465.84
2023-05-18T16:08:51.170Z,101458.34
2023-05-18T16:11:19.581Z,101463.41
2023-05-18T16:13:50.174Z,101459.94
2023-05-18T16:16:20.150Z,101457.22
2023-05-18T16:18:48.627Z,101453.53
2023-05-18T16:21:16.667Z,101455.88
2023-05-18T16:23:45.917Z,101459.03
2023-05-18T16:26:14.662Z,101457.13
2023-05-18T16:29:23.234Z,101456.12
2023-05-18T16:32:08.238Z,101454.28
2023-05-18T16:34:54.717Z,101445.59
2023-05-18T16:37:23.058Z,101446.00
2023-05-18T16:39:51.092Z,101447.88
2023-05-18T16:42:20.692Z,101452.41
2023-05-18T16:44:49.027Z,101454.16
2023-05-18T16:47:18.665Z,101444.97
2023-05-18T16:50:14.519Z,101452.91
2023-05-18T16:52:48.914Z,101453.09
2023-05-18T16:55:17.265Z,101457.72
2023-05-18T16:57:45.567Z,101450.78
2023-05-18T17:00:14.900Z,101451.47
2023-05-18T17:02:44.460Z,101450.87
2023-05-18T17:05:12.960Z,101448.00
2023-05-18T17:07:55.054Z,101447.47
2023-05-18T17:10:23.807Z,101441.25
2023-05-18T17:12:51.918Z,101444.25
2023-05-18T17:15:20.087Z,101452.12
2023-05-18T17:17:49.785Z,101450.28
2023-05-18T17:20:18.030Z,101447.03
2023-05-18T17:22:46.072Z,101447.41
2023-05-18T17:25:14.528Z,101448.28
2023-05-18T17:27:42.738Z,101458.62
2023-05-18T17:30:11.213Z,101456.75
2023-05-18T17:36:57.781Z,101454.44
2023-05-18T17:39:33.749Z,101466.12
2023-05-18T17:42:01.900Z,101458.22
2023-05-18T17:44:30.485Z,101460.59
2023-05-18T17:47:01.974Z,101452.31
2023-05-18T17:49:30.264Z,101460.69
2023-05-18T17:52:17.379Z,101459.78
2023-05-18T17:54:47.088Z,101459.38
2023-05-18T17:57:15.171Z,101466.16
2023-05-18T17:59:43.249Z,101466.66
2023-05-18T18:02:14.373Z,101466.81
2023-05-18T18:04:44.976Z,101464.41
2023-05-18T18:08:02.443Z,101462.78
2023-05-18T18:10:33.223Z,101468.13
2023-05-18T18:13:01.578Z,101470.84
2023-05-18T18:15:29.751Z,101470.63
2023-05-18T18:17:58.223Z,101469.06
2023-05-18T18:20:26.506Z,101475.50
2023-05-18T18:22:54.855Z,101468.78
2023-05-18T18:25:58.182Z,101472.62
2023-05-18T18:28:26.329Z,101473.63
2023-05-18T18:30:54.908Z,101484.78
2023-05-18T18:33:25.700Z,101479.75
2023-05-18T18:35:54.956Z,101483.53
2023-05-18T18:38:23.814Z,101479.59
2023-05-18T18:40:52.110Z,101480.87
2023-05-18T18:43:21.535Z,101474.06
2023-05-18T18:45:53.597Z,101476.19
2023-05-18T18:48:22.563Z,101484.41
2023-05-18T18:54:17.101Z,101481.72
2023-05-18T18:57:05.076Z,101481.94
2023-05-18T18:59:53.083Z,101486.47
2023-05-18T19:02:41.097Z,101485.47
2023-05-18T19:16:21.131Z,101495.63
2023-05-18T19:22:00.736Z,101500.69
2023-05-18T19:30:44.732Z,101512.63
2023-05-18T19:33:33.646Z,101511.44
2023-05-18T19:36:01.701Z,101519.19
2023-05-18T19:41:41.614Z,101519.62
2023-05-18T19:44:24.397Z,101520.81
2023-05-18T19:46:52.440Z,101518.56
2023-05-18T19:49:20.837Z,101517.19
2023-05-18T20:01:57.703Z,101515.37
2023-05-18T20:04:46.246Z,101518.28
2023-05-18T20:11:03.570Z,101519.88
2023-05-18T20:13:33.293Z,101522.97
2023-05-18T20:16:03.407Z,101525.50
2023-05-18T20:18:45.916Z,101522.09
2023-05-18T20:21:33.059Z,101521.84
2023-05-18T20:24:44.041Z,101524.59
2023-05-18T20:27:16.547Z,101520.12
2023-05-18T20:30:19.401Z,101522.22
2023-05-18T20:32:48.843Z,101518.63
2023-05-18T20:35:54.836Z,101524.38
2023-05-18T20:38:26.006Z,101516.00
2023-05-18T20:40:57.164Z,101523.47
2023-05-18T20:46:47.628Z,101520.25
2023-05-18T20:49:36.837Z,101519.91
2023-05-18T20:52:05.727Z,101525.37
2023-05-18T20:54:51.809Z,101518.69
2023-05-18T20:58:26.461Z,101524.03
2023-05-18T21:00:56.231Z,101522.13
2023-05-18T21:03:24.956Z,101523.00
2023-05-18T21:06:06.735Z,101517.66
2023-05-18T21:08:35.043Z,101514.19
2023-05-18T21:11:18.077Z,101516.88
2023-05-18T21:13:55.247Z,101524.91
2023-05-18T21:16:23.335Z,101518.50
2023-05-18T21:18:51.728Z,101528.37
2023-05-18T21:21:22.068Z,101520.63
2023-05-18T21:23:50.086Z,101519.97
2023-05-18T21:32:36.326Z,101522.53
2023-05-18T21:35:05.579Z,101520.63
2023-05-18T21:37:47.425Z,101524.25
2023-05-18T21:40:16.064Z,101523.94
2023-05-18T21:42:45.834Z,101523.09
2023-05-18T21:45:14.603Z,101525.75
2023-05-18T21:47:43.589Z,101523.19
2023-05-18T21:50:12.344Z,101521.59
2023-05-18T21:56:40.473Z,101520.16
2023-05-18T21:59:08.899Z,101518.19
2023-05-18T22:02:05.227Z,101522.13
2023-05-18T22:04:48.511Z,101528.63
2023-05-18T22:07:23.154Z,101529.03
2023-05-18T22:09:53.278Z,101524.94
2023-05-18T22:12:40.441Z,101520.66
2023-05-18T22:15:10.473Z,101520.53
2023-05-18T22:17:39.356Z,101523.41
2023-05-18T22:23:50.434Z,101514.53
2023-05-18T22:26:20.197Z,101516.47
2023-05-18T22:28:49.704Z,101519.13
2023-05-18T22:31:17.857Z,101510.16
2023-05-18T22:38:12.631Z,101515.09
2023-05-18T22:40:41.115Z,101514.44
2023-05-18T22:43:28.937Z,101514.53
2023-05-18T22:45:59.084Z,101509.09
2023-05-18T22:48:28.518Z,101508.34
2023-05-18T22:54:19.632Z,101503.75
2023-05-18T22:57:07.069Z,101508.44
2023-05-18T22:59:35.991Z,101510.16
2023-05-18T23:02:23.087Z,101506.62
2023-05-18T23:08:02.790Z,101507.59
2023-05-18T23:10:48.151Z,101500.69
2023-05-18T23:16:45.179Z,101500.31
2023-05-18T23:23:05.099Z,101499.84
2023-05-18T23:25:34.735Z,101502.88
2023-05-18T23:28:02.794Z,101499.56
2023-05-18T23:30:32.190Z,101490.47
2023-05-18T23:33:14.833Z,101500.22
2023-05-18T23:39:47.148Z,101494.87
2023-05-18T23:42:19.532Z,101499.66
2023-05-18T23:44:49.025Z,101495.28
2023-05-18T23:50:44.272Z,101490.78
2023-05-18T23:59:11.447Z,101493.09
